TimeEDT,TemperatureF,Dew PointF,Humidity,Sea Level PressureIn,VisibilityMPH,Wind Direction,Wind SpeedMPH,Gust SpeedMPH,PrecipitationIn,Events,Conditions,WindDirDegrees,DateUTC
12:53 AM,50.0,41.0,71,30.32,10.0,Calm,Calm,-,N/A,,Clear,0,2012-10-13 04:53:00
1:53 AM,48.9,41.0,74,30.31,10.0,Calm,Calm,-,N/A,,Clear,0,2012-10-13 05:53:00
2:53 AM,48.0,41.0,77,30.30,10.0,Calm,Calm,-,N/A,,Clear,0,2012-10-13 06:53:00
3:53 AM,48.0,41.0,77,30.28,10.0,Calm,Calm,-,N/A,,Clear,0,2012-10-13 07:53:00
4:53 AM,46.9,41.0,80,30.29,10.0,ESE,4.6,-,N/A,,Clear,110,2012-10-13 08:53:00
5:53 AM,46.9,41.0,80,30.30,10.0,SSE,4.6,-,N/A,,Clear,150,2012-10-13 09:53:00
6:53 AM,46.9,41.0,80,30.30,10.0,SSE,4.6,-,N/A,,Clear,150,2012-10-13 10:53:00
7:53 AM,46.0,41.0,83,30.30,10.0,SE,4.6,-,N/A,,Clear,140,2012-10-13 11:53:00
8:53 AM,48.0,42.1,80,30.30,10.0,SE,3.5,-,N/A,,Clear,130,2012-10-13 12:53:00
9:53 AM,52.0,44.1,74,30.31,10.0,Calm,Calm,-,N/A,,Clear,0,2012-10-13 13:53:00
10:53 AM,55.9,45.0,67,30.31,10.0,Calm,Calm,-,N/A,,Clear,0,2012-10-13 14:53:00
11:53 AM,63.0,48.0,58,30.28,10.0,Variable,5.8,-,N/A,,Clear,0,2012-10-13 15:53:00
12:53 PM,68.0,51.1,55,30.25,10.0,South,6.9,-,N/A,,Clear,180,2012-10-13 16:53:00
1:53 PM,72.0,53.1,51,30.22,10.0,Variable,3.5,-,N/A,,Clear,0,2012-10-13 17:53:00
2:53 PM,73.9,52.0,46,30.19,10.0,Variable,6.9,-,N/A,,Clear,0,2012-10-13 18:53:00
3:53 PM,75.2,53.6,47,30.19,10.0,Variable,3.5,-,N/A,,Clear,0,2012-10-13 19:53:00
4:53 PM,73.0,52.0,48,30.16,10.0,Variable,3.5,-,N/A,,Partly Cloudy,0,2012-10-13 20:53:00
5:53 PM,72.0,53.1,51,30.16,10.0,Variable,6.9,-,N/A,,Partly Cloudy,0,2012-10-13 21:53:00
6:53 PM,70.0,54.0,57,30.17,10.0,Variable,3.5,-,N/A,,Overcast,0,2012-10-13 22:53:00
7:53 PM,68.0,53.6,60,30.18,10.0,Variable,3.5,-,N/A,,Overcast,0,2012-10-13 23:53:00
8:53 PM,66.9,54.0,63,30.17,10.0,Variable,4.6,-,N/A,,Clear,0,2012-10-14 00:53:00
9:53 PM,66.2,53.6,64,30.18,10.0,Variable,4.6,-,N/A,,Clear,0,2012-10-14 01:53:00
10:53 PM,64.0,54.0,70,30.16,10.0,Variable,3.5,-,N/A,,Clear,0,2012-10-14 02:53:00
11:53 PM,62.6,53.6,72,30.16,10.0,Variable,4.6,-,N/A,,Clear,0,2012-10-14 03:53:00